Main page
METAR-TAF:

METAR-TAF

Airports :

Khartoum, Sudan

Khartoum International Airport

latitude: 15-36N, longitude: 032-33E, elevation: 382 m

Current weather observation

The report was made 26 minutes ago, at 14:00 UTC
Wind 6 kt from the North/Northwest
Temperature 31°C
Humidity 19%
Pressure 1011 hPa
Visibility 10 km or more
no clouds below 1500 m and no cumulonimbus

METAR: HSSS 211400Z 34006KT CAVOK 31/05 Q1011 NOSIG

Time: 17:26 (14:26 UTC)

Forecast

The report was made 3 hours and 26 minutes ago, at 11:00 UTC
Forecast valid from 21 at 12 UTC to 22 at 18 UTC
Wind 8 kt from the North/Northeast with gusts up to 18 kt
Visibility 10 km or more
no clouds below 1500 m and no cumulonimbus
Probability 30% :
Temporary
from 21 at 15 UTC to 21 at 20 UTC
Visibility: 6000 m

TAF: HSSS 211100Z 2112/2218 03008G18KT CAVOK PROB30 TEMPO 2115/2120 6000

Weather observations and forecasts of more than 4000 airports (METAR and TAF reports).

The available stations are represented by yellow and red dots on the map.

Hover mouse over dot to see the name of the station.

Then click to see weather observations and forecasts.

To change the map : click on the green buttons with a black cross to zoom in, on the green button with a dash to zoom out, or on the green arrows for adjacent maps.


METAR-TAF: